Station info - map view · info · telemetry · weather · raw · status · beacons · messages · bulletins · browse · moving · my account
Callsign, ship name or locator: Clear       
It is possible to search using wildcards (*?) after a prefix. Example: OH*
APRS station N6NG - show graphs
Map loading...
Comment: |3>f
Mic-E message: En route
Last status: MicroTrak FA v1.41
Location: 32°49.37' N 116°58.45' W - locator DM12MT37CL - show map - static map
1.1 miles South bearing 181° from Santee, San Diego County, California, United States [?]
2.1 miles North bearing 341° from El Cajon, San Diego County, California, United States
13.0 miles Northeast bearing 55° from San Diego, San Diego County, California, United States
22.2 miles North bearing 4° from Tijuana, Baja California, Mexico
Last position: 2017-10-21 12:43:11 EDT (1d 46m ago)
2017-10-21 09:43:11 PDT local time at Santee, United States [?]
Altitude: 404 ft
Course: 216°
Last telemetry: 2017-10-21 12:43:11 EDT (1d 46m ago) – show telemetry
Ch 1: 475, Ch 2: 613, Ch 3: 0, Ch 4: 0, Ch 5: 0
 1     2     3     4     5     6     7     8 
Device: Unknown: Other Mic-E
Last path: N6NG>SR4YSW via KA6DAC-1,WIDE1*,WIDE2-1,qAR,AF6UA-10 (good)
Positions stored: 14402
Packet rate: 16 seconds between packets on average during 810 seconds.
This station is transmitting packets at a high rate, which can cause congestion in the APRS network.
Other SSIDs: N6NG-6
Stations near current position of N6NG - show more
callsign distance last heard - EDT      callsign distance last heard - EDT
N6NG-68.6 yards 173°2017-10-20 10:06:47 O6NG26.1 yards 222°2017-10-20 07:42:29
WA6MHZ-91.0 miles 148°2017-10-22 12:34:16 KB6RCT-91.2 miles 132°2017-10-22 12:44:58
AJ6AX-91.3 miles 313°2017-10-11 20:38:46 K6VCR-51.5 miles 274°2017-09-29 19:33:04
NA6NA-51.6 miles 322°2017-09-30 16:47:58 NA6NA-91.6 miles 323°2017-10-07 18:36:38
KA6DAC-12.0 miles 80°2017-10-22 13:28:21 KJ6YXI-92.4 miles 180°2017-10-13 18:12:41
K5WFW-92.7 miles 10°2017-10-21 17:34:54 AB6IH-102.9 miles 236°2017-09-22 23:18:43
W6NEO-93.0 miles 214°2017-10-21 23:28:37 EW48583.1 miles 120°2017-10-22 13:29:48
KD0SOR-73.1 miles 225°2017-10-15 14:20:04 EW33093.2 miles 329°2017-10-22 13:23:04
WB6ZAM-53.2 miles 92°2017-10-08 01:46:13 KD6DCN-53.4 miles 198°2017-10-22 13:22:56
KM6JUR3.5 miles 228°2017-10-10 00:21:16 KC6ZVF3.6 miles 139°2017-10-22 12:44:25
Stations which heard N6NG directly on radio –
callsign pkts first heard - EDT last heard longest (tx => rx) longest at - EDT
WB6WLV-11 9 2017-10-04 13:16:33 2017-10-21 12:28:12 DM13VG > DM12TV 29.7 miles 205° 2017-10-04 13:22:48
W6SCE-10 3 2017-10-04 13:47:17 2017-10-21 12:35:54 DM12RV > DM04QH 155.0 miles 310° 2017-10-04 13:47:17
INDIO 1 2017-10-21 12:15:47 2017-10-21 12:15:47 DM13WF > DM13VT 38.6 miles 351° 2017-10-21 12:15:47
N6EX-4 3 2017-10-21 12:00:50 2017-10-21 12:28:14 DM13RA > DM13CO 82.6 miles 300° 2017-10-21 12:28:14
W6HRO 10 2017-10-21 12:01:28 2017-10-21 12:32:44 DM13WE > DM13AU 113.8 miles 294° 2017-10-21 12:18:20
NG6B 10 2017-10-04 13:16:33 2017-10-21 12:23:41 DM13WF > DM13MA 49.9 miles 252° 2017-10-21 12:15:35
XE2TPJ 6 2017-10-21 12:02:22 2017-10-21 12:29:45 DM12QX > DM22PK 115.7 miles 107° 2017-10-21 12:02:22
KF6ILA 7 2017-10-04 13:17:26 2017-10-21 12:15:36 DM13WF > DM13RB 29.2 miles 245° 2017-10-21 12:15:36
W6MF 12 2017-10-04 13:54:20 2017-10-21 12:35:10 DM12RR > DM13JI 60.5 miles 319° 2017-10-04 13:54:20
KF6ILA-10 13 2017-10-04 13:10:35 2017-10-21 12:35:24 DM12RR > DM13NI 48.3 miles 338° 2017-10-04 13:54:12
N5CAT-15 1 2017-10-04 13:45:43 2017-10-04 13:45:43 DM12SW > DM13DN 84.9 miles 302° 2017-10-04 13:45:43
AG6IF-1 2 2017-10-21 11:57:52 2017-10-21 12:31:15 DM12PW > DM13LL 46.3 miles 330° 2017-10-21 12:31:15
KA6DAC-1 2416 2017-10-04 13:09:05 2017-10-21 12:42:50 DM13SC > DM12MT 33.5 miles 235° 2017-10-21 12:25:11
W6SCE-11 4 2017-10-04 13:17:40 2017-10-21 12:16:14 DM13WD > DM23GP 53.6 miles 47° 2017-10-04 13:17:40
WD6DRI-1 14 2017-10-04 13:50:12 2017-10-21 12:35:23 DM13SC > DM13KA 36.2 miles 261° 2017-10-21 12:25:11
KD6DCN-5 752 2017-10-04 14:06:34 2017-10-21 09:54:21 DM12MT > DM12MS 3.4 miles 198° 2017-10-21 09:54:21
XE2GF-10 28 2017-10-04 13:09:04 2017-10-21 12:36:52 DM13UB > DM12LM 56.8 miles 227° 2017-10-04 13:41:14
AF6UA-10 32 2017-10-04 13:09:04 2017-10-21 12:36:52 DM13UC > DM13LC 46.6 miles 273° 2017-10-21 12:09:45
KF6SJ-10 1 2017-10-04 14:02:35 2017-10-04 14:02:35 DM12NT > DM13LA 16.6 miles 330° 2017-10-04 14:02:35
KJ6YLW-1 8 2017-10-04 13:25:06 2017-10-21 12:28:10 DM12SW > DM12KW 38.5 miles 272° 2017-10-04 14:05:58
N6SUN-10 1 2017-10-04 13:39:44 2017-10-04 13:39:44 DM13UC > DM13KB 47.7 miles 268° 2017-10-04 13:39:44
KJ6YLW-2 21 2017-10-04 13:20:57 2017-10-21 12:23:09 DM13WF > DM13QD 27.9 miles 256° 2017-10-21 12:16:22
GA6DAC-1 1 2017-10-21 02:43:26 2017-10-21 02:43:26 DM12MT > DM12MT 2.0 miles 80° 2017-10-21 02:43:26
KN0RDC-15 1 2017-10-21 12:25:58 2017-10-21 12:25:58 DM13SD > DM04KT 192.6 miles 307° 2017-10-21 12:25:58
W6SUN-1 2 2017-10-04 14:11:44 2017-10-04 14:12:20 DM12QS > DM12KX 30.0 miles 295° 2017-10-04 14:12:20

Only position packets which were originated by the station are shown here. The range statistics show some extra long hops, because some digipeaters do not correctly add themselves to the digipeater path. Please check the raw packets.
About this site
This page shows real-time information collected from the Automatic Position Reporting System Internet network (APRS-IS). APRS is used by amateur (ham) radio operators to transmit real-time position information, weather data, telemetry and messages over the radio. A vehicle equipped with a GPS receiver, a VHF transmitter or HF transceiver and a small computer device called a tracker transmits it's location, speed and course in a small data packet, which is then received by a nearby iGate receiving site which forwards the packet on the Internet. Systems connected to the Internet can send information on the APRS-IS without a radio transmitter, or collect and display information transmitted anywhere in the world.
FAQ · Blog · Discussion group · Linking to aprs.fi · AIS sites · Service status · Database statistics · Advertising on aprs.fi · Technical details · API · Change log · Planned changes · Credits and thanks · Terms Of Service · iPhone/iPad APRS